createdAt,value
2023-04-16T00:02:17.550Z,100619.19
2023-04-16T00:04:46.434Z,100619.16
2023-04-16T00:07:15.363Z,100612.94
2023-04-16T00:09:41.862Z,100614.41
2023-04-16T00:12:11.162Z,100618.50
2023-04-16T00:14:39.974Z,100618.84
2023-04-16T00:17:06.517Z,100622.47
2023-04-16T00:19:36.044Z,100620.81
2023-04-16T00:22:02.584Z,100627.72
2023-04-16T00:24:29.090Z,100624.59
2023-04-16T00:26:55.992Z,100624.13
2023-04-16T00:29:22.639Z,100620.16
2023-04-16T00:31:49.383Z,100614.25
2023-04-16T00:34:16.369Z,100623.09
2023-04-16T00:36:42.906Z,100626.91
2023-04-16T00:39:09.546Z,100628.56
2023-04-16T00:41:38.236Z,100622.94
2023-04-16T00:44:04.793Z,100627.88
2023-04-16T00:46:34.989Z,100629.69
2023-04-16T00:49:05.007Z,100629.03
2023-04-16T00:51:31.824Z,100624.91
2023-04-16T00:54:04.084Z,100631.97
2023-04-16T00:56:30.926Z,100628.22
2023-04-16T00:58:57.507Z,100628.53
2023-04-16T01:01:24.018Z,100630.84
2023-04-16T01:03:50.977Z,100633.28
2023-04-16T01:06:18.447Z,100638.22
2023-04-16T01:08:46.633Z,100638.53
2023-04-16T01:11:16.472Z,100637.59
2023-04-16T01:13:42.893Z,100641.81
2023-04-16T01:16:11.892Z,100638.72
2023-04-16T01:18:39.323Z,100632.78
2023-04-16T01:21:06.571Z,100628.69
2023-04-16T01:23:33.238Z,100629.47
2023-04-16T01:25:59.998Z,100636.56
2023-04-16T01:28:26.582Z,100632.09
2023-04-16T01:30:53.209Z,100635.25
2023-04-16T01:33:22.125Z,100645.28
2023-04-16T01:35:48.513Z,100641.66
2023-04-16T01:38:15.026Z,100648.06
2023-04-16T01:40:41.435Z,100641.81
2023-04-16T01:43:07.884Z,100649.53
2023-04-16T01:45:38.041Z,100649.19
2023-04-16T01:48:04.944Z,100650.84
2023-04-16T01:50:34.761Z,100655.13
2023-04-16T01:53:02.209Z,100659.69
2023-04-16T01:55:28.609Z,100656.94
2023-04-16T01:57:54.965Z,100658.22
2023-04-16T02:00:21.540Z,100659.34
2023-04-16T02:02:49.448Z,100659.34
2023-04-16T02:05:16.207Z,100658.69
2023-04-16T02:07:42.646Z,100664.56
2023-04-16T02:10:10.338Z,100658.97
2023-04-16T02:12:39.869Z,100661.47
2023-04-16T02:15:07.136Z,100663.59
2023-04-16T02:17:33.583Z,100660.66
2023-04-16T02:20:00.172Z,100660.97
2023-04-16T02:22:26.659Z,100657.50
2023-04-16T02:24:53.303Z,100654.41
2023-04-16T02:27:22.286Z,100667.03
2023-04-16T02:29:51.183Z,100670.16
2023-04-16T02:32:18.226Z,100664.91
2023-04-16T02:34:49.368Z,100666.22
2023-04-16T02:37:15.871Z,100670.00
2023-04-16T02:39:45.033Z,100672.78
2023-04-16T02:42:11.500Z,100669.81
2023-04-16T02:44:38.053Z,100669.16
2023-04-16T02:47:04.484Z,100669.66
2023-04-16T02:49:33.148Z,100672.44
2023-04-16T02:51:59.588Z,100672.44
2023-04-16T02:54:26.088Z,100674.91
2023-04-16T02:56:52.471Z,100679.16
2023-04-16T02:59:21.460Z,100674.44
2023-04-16T03:01:48.014Z,100665.72
2023-04-16T03:04:14.580Z,100677.84
2023-04-16T03:06:41.131Z,100669.47
2023-04-16T03:11:33.851Z,100672.28
2023-04-16T03:14:02.668Z,100672.75
2023-04-16T03:16:33.734Z,100676.03
2023-04-16T03:19:02.716Z,100676.88
2023-04-16T03:21:31.839Z,100679.03
2023-04-16T03:23:58.237Z,100674.09
2023-04-16T03:26:24.703Z,100680.19
2023-04-16T03:28:51.133Z,100676.59
2023-04-16T03:31:17.616Z,100679.22
2023-04-16T03:33:44.061Z,100681.16
2023-04-16T03:36:10.437Z,100683.13
2023-04-16T03:38:41.529Z,100695.44
2023-04-16T03:41:07.913Z,100691.31
2023-04-16T03:43:34.270Z,100695.44
2023-04-16T03:46:00.841Z,100690.06
2023-04-16T03:48:27.190Z,100695.13
2023-04-16T03:50:53.593Z,100695.75
2023-04-16T03:53:22.583Z,100697.88
2023-04-16T03:55:52.569Z,100695.94
2023-04-16T03:58:19.857Z,100705.94
2023-04-16T04:00:46.411Z,100696.38
2023-04-16T04:03:13.199Z,100707.06
2023-04-16T04:05:41.012Z,100704.56
2023-04-16T04:08:07.888Z,100702.25
2023-04-16T04:10:37.397Z,100701.94
2023-04-16T04:13:07.334Z,100699.19
2023-04-16T04:15:33.793Z,100703.31
2023-04-16T04:18:00.311Z,100708.06
2023-04-16T04:20:26.741Z,100710.50
2023-04-16T04:22:53.208Z,100705.25
2023-04-16T04:25:19.687Z,100712.81
2023-04-16T04:27:46.209Z,100709.88
2023-04-16T04:30:12.583Z,100714.44
2023-04-16T04:32:39.105Z,100710.03
2023-04-16T04:35:06.120Z,100708.38
2023-04-16T04:37:34.927Z,100714.63
2023-04-16T04:40:03.854Z,100715.44
2023-04-16T04:42:32.575Z,100723.00
2023-04-16T04:44:59.128Z,100722.38
2023-04-16T04:47:25.492Z,100723.69
2023-04-16T04:49:51.950Z,100727.28
2023-04-16T04:52:20.448Z,100726.31
2023-04-16T04:54:51.500Z,100736.16
2023-04-16T04:57:20.675Z,100737.34
2023-04-16T04:59:47.151Z,100734.91
2023-04-16T05:02:13.918Z,100743.09
2023-04-16T05:04:40.580Z,100737.16
2023-04-16T05:07:07.217Z,100742.28
2023-04-16T05:09:35.960Z,100742.16
2023-04-16T05:12:02.717Z,100757.56
2023-04-16T05:14:31.415Z,100745.22
2023-04-16T05:17:03.643Z,100749.00
2023-04-16T05:19:30.064Z,100744.41
2023-04-16T05:21:58.872Z,100751.28
2023-04-16T05:24:25.377Z,100753.91
2023-04-16T05:26:54.987Z,100753.28
2023-04-16T05:29:21.933Z,100762.56
2023-04-16T05:31:48.383Z,100763.09
2023-04-16T05:34:14.939Z,100767.38
2023-04-16T05:36:41.381Z,100768.19
2023-04-16T05:39:07.952Z,100766.03
2023-04-16T05:41:34.674Z,100766.13
2023-04-16T05:44:01.126Z,100755.56
2023-04-16T05:46:27.704Z,100768.50
2023-04-16T05:48:54.167Z,100767.06
2023-04-16T05:51:25.495Z,100766.94
2023-04-16T05:53:52.160Z,100777.25
2023-04-16T05:56:21.850Z,100785.47
2023-04-16T05:58:50.965Z,100773.69
2023-04-16T06:01:18.170Z,100770.75
2023-04-16T06:03:45.468Z,100777.66
2023-04-16T06:06:14.344Z,100777.19
2023-04-16T06:08:40.840Z,100782.25
2023-04-16T06:11:07.300Z,100783.59
2023-04-16T06:13:33.680Z,100786.69
2023-04-16T06:16:00.287Z,100791.84
2023-04-16T06:18:26.692Z,100799.19
2023-04-16T06:20:53.274Z,100794.47
2023-04-16T06:23:19.923Z,100800.34
2023-04-16T06:25:46.396Z,100802.84
2023-04-16T06:28:12.876Z,100804.97
2023-04-16T06:30:39.648Z,100814.44
2023-04-16T06:33:06.193Z,100808.09
2023-04-16T06:35:37.261Z,100809.06
2023-04-16T06:38:03.685Z,100802.53
2023-04-16T06:40:30.395Z,100816.13
2023-04-16T06:42:56.794Z,100820.44
2023-04-16T06:45:23.337Z,100818.06
2023-04-16T06:47:50.997Z,100813.16
2023-04-16T06:50:17.731Z,100825.63
2023-04-16T06:52:44.371Z,100820.38
2023-04-16T06:55:13.902Z,100823.63
2023-04-16T06:57:40.837Z,100831.72
2023-04-16T07:00:08.146Z,100830.53
2023-04-16T07:02:35.199Z,100826.13
2023-04-16T07:05:01.880Z,100829.09
2023-04-16T07:07:31.340Z,100834.00
2023-04-16T07:09:58.692Z,100836.81
2023-04-16T07:12:25.403Z,100845.16
2023-04-16T07:14:54.210Z,100835.47
2023-04-16T07:17:20.677Z,100838.94
2023-04-16T07:19:47.466Z,100831.22
2023-04-16T07:22:13.845Z,100836.31
2023-04-16T07:24:40.334Z,100833.88
2023-04-16T07:27:06.797Z,100843.41
2023-04-16T07:29:33.435Z,100839.91
2023-04-16T07:32:00.038Z,100846.28
2023-04-16T07:34:26.669Z,100840.22
2023-04-16T07:36:53.048Z,100850.91
2023-04-16T07:39:19.403Z,100850.66
2023-04-16T07:41:45.865Z,100851.63
2023-04-16T07:44:12.362Z,100852.97
2023-04-16T07:46:46.415Z,100843.75
2023-04-16T07:49:16.399Z,100855.56
2023-04-16T07:51:42.914Z,100850.00
2023-04-16T07:54:10.630Z,100852.97
2023-04-16T07:56:37.122Z,100848.06
2023-04-16T07:59:14.802Z,100854.81
2023-04-16T08:01:48.062Z,100854.69
2023-04-16T08:04:17.036Z,100859.81
2023-04-16T08:06:43.538Z,100857.19
2023-04-16T08:09:10.410Z,100855.22
2023-04-16T08:11:37.082Z,100864.13
2023-04-16T08:14:03.775Z,100862.50
2023-04-16T08:16:32.386Z,100861.69
2023-04-16T08:19:01.147Z,100865.16
2023-04-16T08:21:28.155Z,100868.63
2023-04-16T08:23:54.656Z,100879.16
2023-04-16T08:26:21.302Z,100870.28
2023-04-16T08:28:47.766Z,100875.56
2023-04-16T08:31:17.095Z,100885.09
2023-04-16T08:33:43.578Z,100878.81
2023-04-16T08:36:10.047Z,100881.44
2023-04-16T08:38:36.510Z,100882.44
2023-04-16T08:41:06.410Z,100884.44
2023-04-16T08:43:37.236Z,100886.28
2023-04-16T08:46:05.763Z,100887.75
2023-04-16T08:48:35.122Z,100885.28
2023-04-16T08:51:02.523Z,100885.63
2023-04-16T08:53:59.893Z,100891.06
2023-04-16T08:56:27.230Z,100892.03
2023-04-16T08:58:55.238Z,100890.06
2023-04-16T09:01:22.601Z,100897.13
2023-04-16T09:03:49.707Z,100902.53
2023-04-16T09:06:17.422Z,100903.22
2023-04-16T09:08:48.063Z,100901.06
2023-04-16T09:11:17.613Z,100907.81
2023-04-16T09:13:44.577Z,100907.31
2023-04-16T09:16:12.545Z,100909.75
2023-04-16T09:18:39.022Z,100914.22
2023-04-16T09:21:05.867Z,100917.50
2023-04-16T09:23:35.358Z,100916.34
2023-04-16T09:26:04.870Z,100923.75
2023-04-16T09:28:46.375Z,100918.63
2023-04-16T09:31:18.401Z,100920.97
2023-04-16T09:34:03.149Z,100932.13
2023-04-16T09:36:31.409Z,100935.41
2023-04-16T09:38:58.412Z,100935.72
2023-04-16T09:41:29.663Z,100937.34
2023-04-16T09:44:00.468Z,100939.84
2023-04-16T09:46:31.397Z,100934.97
2023-04-16T09:48:58.215Z,100942.22
2023-04-16T09:51:27.028Z,100942.66
2023-04-16T09:53:54.798Z,100936.91
2023-04-16T09:56:26.810Z,100938.91
2023-04-16T09:58:58.520Z,100944.84
2023-04-16T10:01:25.651Z,100945.81
2023-04-16T10:03:55.695Z,100953.72
2023-04-16T10:06:27.159Z,100945.19
2023-04-16T10:08:57.013Z,100944.19
2023-04-16T10:11:27.090Z,100953.25
2023-04-16T10:13:53.500Z,100951.13
2023-04-16T10:16:21.969Z,100953.06
2023-04-16T10:18:48.536Z,100949.41
2023-04-16T10:21:16.405Z,100951.00
2023-04-16T10:23:43.798Z,100958.97
2023-04-16T10:26:10.469Z,100961.28
2023-04-16T10:28:37.433Z,100965.84
2023-04-16T10:31:07.879Z,100964.53
2023-04-16T10:33:40.922Z,100964.22
2023-04-16T10:36:12.457Z,100963.38
2023-04-16T10:38:45.543Z,100964.09
2023-04-16T10:41:12.225Z,100967.84
2023-04-16T10:43:44.213Z,100967.22
2023-04-16T10:46:31.429Z,100969.19
2023-04-16T10:49:02.851Z,100973.72
2023-04-16T10:51:34.403Z,100964.28
2023-04-16T10:54:14.361Z,100961.34
2023-04-16T10:56:43.409Z,100962.03
2023-04-16T10:59:17.448Z,100961.59
2023-04-16T11:01:45.848Z,100971.59
2023-04-16T11:04:21.335Z,100959.44
2023-04-16T11:07:19.139Z,100966.53
2023-04-16T11:09:54.814Z,100957.50
2023-04-16T11:12:23.738Z,100963.09
2023-04-16T11:14:51.517Z,100965.06
2023-04-16T11:17:19.251Z,100956.50
2023-04-16T11:19:46.603Z,100966.53
2023-04-16T11:22:17.224Z,100964.13
2023-04-16T11:24:47.462Z,100959.00
2023-04-16T11:27:15.224Z,100963.75
2023-04-16T11:29:42.430Z,100961.88
2023-04-16T11:32:09.071Z,100966.78
2023-04-16T11:34:43.949Z,100960.88
2023-04-16T11:37:13.185Z,100964.00
2023-04-16T11:39:51.042Z,100962.00
2023-04-16T11:42:24.092Z,100963.94
2023-04-16T11:44:58.313Z,100958.69
2023-04-16T11:47:25.158Z,100958.19
2023-04-16T11:49:51.780Z,100967.16
2023-04-16T11:52:32.764Z,100966.31
2023-04-16T11:54:59.845Z,100963.84
2023-04-16T11:57:33.338Z,100965.81
2023-04-16T12:00:01.635Z,100964.50
2023-04-16T12:02:42.036Z,100965.97
2023-04-16T12:05:35.085Z,100968.47
2023-04-16T12:08:04.014Z,100967.63
2023-04-16T12:10:34.865Z,100975.72
2023-04-16T12:13:15.289Z,100969.41
2023-04-16T12:15:50.571Z,100964.84
2023-04-16T12:18:18.141Z,100973.41
2023-04-16T12:20:45.780Z,100965.03
2023-04-16T12:23:35.195Z,100970.47
2023-04-16T12:26:10.603Z,100967.66
2023-04-16T12:28:38.645Z,100973.63
2023-04-16T12:31:08.127Z,100970.97
2023-04-16T12:33:34.572Z,100972.47
2023-04-16T12:36:04.684Z,100968.34
2023-04-16T12:38:33.238Z,100973.59
2023-04-16T12:41:02.169Z,100976.09
2023-04-16T12:43:29.167Z,100977.91
2023-04-16T12:45:55.894Z,100976.25
2023-04-16T12:48:22.436Z,100975.25
2023-04-16T12:50:48.991Z,100971.81
2023-04-16T12:53:15.565Z,100968.66
2023-04-16T12:55:41.982Z,100976.72
2023-04-16T12:58:10.569Z,100977.72
2023-04-16T13:00:38.903Z,100973.91
2023-04-16T13:03:05.630Z,100970.47
2023-04-16T13:05:34.876Z,100968.16
2023-04-16T13:08:01.296Z,100971.28
2023-04-16T13:10:28.009Z,100969.50
2023-04-16T13:12:54.493Z,100969.50
2023-04-16T13:15:20.868Z,100969.97
2023-04-16T13:17:47.305Z,100970.78
2023-04-16T13:20:13.798Z,100974.94
2023-04-16T13:22:40.472Z,100978.53
2023-04-16T13:25:07.649Z,100980.03
2023-04-16T13:27:34.093Z,100977.91
2023-04-16T13:30:00.455Z,100975.25
2023-04-16T13:32:27.013Z,100973.78
2023-04-16T13:34:53.524Z,100980.53
2023-04-16T13:37:19.973Z,100981.00
2023-04-16T13:39:47.420Z,100981.69
2023-04-16T13:42:18.555Z,100981.19
2023-04-16T13:44:48.742Z,100985.81
2023-04-16T13:47:17.500Z,100981.50
2023-04-16T13:49:44.290Z,100982.34
2023-04-16T13:52:11.072Z,100983.00
2023-04-16T13:54:42.681Z,100980.34
2023-04-16T13:57:14.026Z,100980.50
2023-04-16T13:59:40.417Z,100982.00
2023-04-16T14:02:10.138Z,100980.84
2023-04-16T14:04:36.792Z,100976.38
2023-04-16T14:07:03.179Z,100981.03
2023-04-16T14:09:29.570Z,100986.28
2023-04-16T14:11:56.297Z,100979.53
2023-04-16T14:14:22.864Z,100982.97
2023-04-16T14:16:49.291Z,100980.31
2023-04-16T14:19:15.994Z,100982.00
2023-04-16T14:21:42.712Z,100987.06
2023-04-16T14:24:09.276Z,100992.38
2023-04-16T14:26:36.047Z,100981.63
2023-04-16T14:29:02.447Z,100992.53
2023-04-16T14:31:28.897Z,100989.56
2023-04-16T14:33:55.398Z,100995.53
2023-04-16T14:36:21.999Z,100996.19
2023-04-16T14:38:48.638Z,100989.25
2023-04-16T14:41:15.359Z,100984.31
2023-04-16T14:43:44.568Z,100992.69
2023-04-16T14:46:11.095Z,100987.28
2023-04-16T14:48:40.767Z,100990.25
2023-04-16T14:51:07.485Z,100984.47
2023-04-16T14:53:34.434Z,100995.03
2023-04-16T14:56:01.849Z,100991.06
2023-04-16T14:58:31.400Z,100993.06
2023-04-16T15:01:00.219Z,100989.91
2023-04-16T15:03:27.540Z,100995.03
2023-04-16T15:05:56.641Z,100986.63
2023-04-16T15:08:24.105Z,100991.72
2023-04-16T15:10:51.318Z,100990.56
2023-04-16T15:13:17.764Z,100988.25
2023-04-16T15:15:44.425Z,100990.91
2023-04-16T15:18:13.453Z,100995.50
2023-04-16T15:20:40.015Z,100994.34
2023-04-16T15:23:09.048Z,100996.84
2023-04-16T15:25:35.626Z,100994.84
2023-04-16T15:28:04.204Z,100987.25
2023-04-16T15:30:31.425Z,100991.06
2023-04-16T15:32:57.936Z,100991.38
2023-04-16T15:35:24.551Z,100984.78
2023-04-16T15:37:55.738Z,100995.31
2023-04-16T15:40:22.435Z,100987.53
2023-04-16T15:42:48.952Z,100992.34
2023-04-16T15:45:15.430Z,100988.84
2023-04-16T15:47:43.222Z,100993.78
2023-04-16T15:50:12.543Z,100992.63
2023-04-16T15:52:39.594Z,100994.47
2023-04-16T15:55:06.302Z,100993.50
2023-04-16T15:57:32.696Z,101005.53
2023-04-16T16:00:06.887Z,101000.63
2023-04-16T16:02:38.192Z,100996.31
2023-04-16T16:05:06.323Z,101003.56
2023-04-16T16:07:33.093Z,100998.09
2023-04-16T16:09:59.662Z,100994.78
2023-04-16T16:12:26.172Z,100995.16
2023-04-16T16:14:52.721Z,101006.56
2023-04-16T16:17:20.533Z,101004.88
2023-04-16T16:19:47.139Z,101008.34
2023-04-16T16:22:13.925Z,101001.13
2023-04-16T16:24:40.390Z,101010.00
2023-04-16T16:27:06.970Z,101008.03
2023-04-16T16:29:35.913Z,101008.69
2023-04-16T16:32:02.472Z,101016.94
2023-04-16T16:34:29.014Z,101011.66
2023-04-16T16:36:55.427Z,101007.22
2023-04-16T16:39:24.450Z,101021.53
2023-04-16T16:41:54.463Z,101009.53
2023-04-16T16:44:21.386Z,101009.84
2023-04-16T16:46:48.086Z,101018.09
2023-04-16T16:49:15.804Z,101013.13
2023-04-16T16:51:45.316Z,101016.28
2023-04-16T16:54:11.715Z,101019.56
2023-04-16T16:56:42.820Z,101016.13
2023-04-16T16:59:09.640Z,101018.41
2023-04-16T17:01:36.616Z,101014.94
2023-04-16T17:04:05.672Z,101017.59
2023-04-16T17:06:33.373Z,101025.81
2023-04-16T17:09:01.134Z,101018.41
2023-04-16T17:11:29.387Z,101020.03
2023-04-16T17:13:56.070Z,101018.56
2023-04-16T17:16:23.880Z,101017.88
2023-04-16T17:18:50.512Z,101017.59
2023-04-16T17:21:17.106Z,101028.13
2023-04-16T17:23:43.666Z,101013.13
2023-04-16T17:26:10.092Z,101017.22
2023-04-16T17:28:36.551Z,101017.41
2023-04-16T17:31:08.585Z,101020.03
2023-04-16T17:33:35.418Z,101026.97
2023-04-16T17:36:01.874Z,101025.16
2023-04-16T17:38:28.376Z,101033.72
2023-04-16T17:40:56.787Z,101035.00
2023-04-16T17:43:25.611Z,101041.28
2023-04-16T17:45:52.206Z,101044.91
2023-04-16T17:48:21.067Z,101049.19
2023-04-16T17:50:48.477Z,101045.91
2023-04-16T17:53:14.898Z,101045.91
2023-04-16T17:55:50.008Z,101054.31
2023-04-16T17:58:26.457Z,101052.63
2023-04-16T18:00:55.322Z,101061.00
2023-04-16T18:03:22.269Z,101052.97
2023-04-16T18:05:48.877Z,101059.72
2023-04-16T18:08:15.489Z,101061.38
2023-04-16T18:10:42.002Z,101061.38
2023-04-16T18:13:13.304Z,101060.69
2023-04-16T18:15:39.798Z,101071.41
2023-04-16T18:18:06.403Z,101063.97
2023-04-16T18:20:33.116Z,101065.63
2023-04-16T18:23:00.167Z,101065.94
2023-04-16T18:25:34.654Z,101072.84
2023-04-16T18:28:02.202Z,101066.59
2023-04-16T18:30:28.893Z,101084.69
2023-04-16T18:33:19.543Z,101074.66
2023-04-16T18:35:41.808Z,101077.31
2023-04-16T18:38:08.366Z,101077.94
2023-04-16T18:40:36.503Z,101081.88
2023-04-16T18:43:03.808Z,101072.53
2023-04-16T18:45:31.165Z,101075.50
2023-04-16T18:47:58.911Z,101083.91
2023-04-16T18:50:31.129Z,101082.06
2023-04-16T18:52:59.724Z,101088.66
2023-04-16T18:55:26.334Z,101091.47
2023-04-16T18:57:53.317Z,101092.13
2023-04-16T19:00:20.121Z,101096.25
2023-04-16T19:02:49.078Z,101100.19
2023-04-16T19:05:15.562Z,101101.19
2023-04-16T19:07:42.101Z,101098.56
2023-04-16T19:10:09.001Z,101101.50
2023-04-16T19:12:35.579Z,101103.97
2023-04-16T19:15:02.065Z,101101.81
2023-04-16T19:17:28.613Z,101109.69
2023-04-16T19:19:55.280Z,101108.34
2023-04-16T19:22:21.894Z,101106.22
2023-04-16T19:24:48.418Z,101111.13
2023-04-16T19:27:17.261Z,101106.13
2023-04-16T19:29:46.824Z,101104.50
2023-04-16T19:32:14.397Z,101108.13
2023-04-16T19:34:40.957Z,101110.38
2023-04-16T19:37:09.681Z,101109.34
2023-04-16T19:39:36.425Z,101107.94
2023-04-16T19:42:03.078Z,101118.78
2023-04-16T19:44:29.668Z,101123.34
2023-04-16T19:46:56.291Z,101111.22
2023-04-16T19:49:27.674Z,101112.19
2023-04-16T19:51:59.142Z,101114.31
2023-04-16T19:54:26.180Z,101119.28
2023-04-16T19:56:52.917Z,101127.31
2023-04-16T19:59:20.494Z,101119.41
2023-04-16T20:01:47.068Z,101122.38
2023-04-16T20:04:13.734Z,101119.41
2023-04-16T20:06:40.560Z,101124.53
2023-04-16T20:09:06.966Z,101123.84
2023-04-16T20:11:34.594Z,101118.91
2023-04-16T20:14:04.116Z,101124.22
2023-04-16T20:16:31.714Z,101116.97
2023-04-16T20:19:03.665Z,101123.47
2023-04-16T20:21:31.952Z,101125.06
2023-04-16T20:24:02.048Z,101115.34
2023-04-16T20:26:33.553Z,101128.19
2023-04-16T20:29:00.806Z,101129.00
2023-04-16T20:31:27.584Z,101126.03
2023-04-16T20:33:54.142Z,101133.31
2023-04-16T20:36:21.432Z,101128.78
2023-04-16T20:38:47.927Z,101130.25
2023-04-16T20:41:21.331Z,101121.50
2023-04-16T20:43:50.249Z,101118.88
2023-04-16T20:46:17.590Z,101114.28
2023-04-16T20:48:44.258Z,101124.47
2023-04-16T20:51:10.752Z,101116.88
2023-04-16T20:53:37.473Z,101114.75
2023-04-16T20:56:04.187Z,101114.25
2023-04-16T20:58:30.704Z,101111.59
2023-04-16T21:00:57.674Z,101112.59
2023-04-16T21:03:24.677Z,101106.81
2023-04-16T21:05:55.759Z,101107.75
2023-04-16T21:08:23.610Z,101108.25
2023-04-16T21:10:50.838Z,101104.81
2023-04-16T21:13:17.374Z,101110.53
2023-04-16T21:15:45.267Z,101099.28
2023-04-16T21:18:11.932Z,101108.50
2023-04-16T21:20:41.406Z,101104.91
2023-04-16T21:23:12.663Z,101109.69
2023-04-16T21:25:39.116Z,101104.34
2023-04-16T21:28:05.538Z,101108.59
2023-04-16T21:30:31.903Z,101110.94
2023-04-16T21:32:58.535Z,101116.38
2023-04-16T21:35:25.069Z,101122.13
2023-04-16T21:37:51.792Z,101115.75
2023-04-16T21:40:18.422Z,101121.47
2023-04-16T21:42:45.045Z,101111.41
2023-04-16T21:45:11.643Z,101112.75
2023-04-16T21:47:38.413Z,101110.72
2023-04-16T21:50:05.774Z,101117.28
2023-04-16T21:52:32.851Z,101107.44
2023-04-16T21:55:02.496Z,101107.13
2023-04-16T21:57:28.997Z,101107.06
2023-04-16T21:59:55.435Z,101106.28
2023-04-16T22:02:22.134Z,101108.78
2023-04-16T22:04:51.074Z,101113.53
2023-04-16T22:07:20.574Z,101111.84
2023-04-16T22:09:47.039Z,101116.28
2023-04-16T22:12:13.864Z,101114.03
2023-04-16T22:14:46.205Z,101118.88
2023-04-16T22:17:23.667Z,101111.75
2023-04-16T22:19:50.761Z,101115.69
2023-04-16T22:22:17.287Z,101121.00
2023-04-16T22:24:44.370Z,101117.28
2023-04-16T22:27:10.787Z,101115.66
2023-04-16T22:29:37.308Z,101110.59
2023-04-16T22:32:04.110Z,101109.97
2023-04-16T22:34:30.689Z,101114.03
2023-04-16T22:36:57.123Z,101113.34
2023-04-16T22:39:23.624Z,101122.25
2023-04-16T22:41:54.884Z,101114.25
2023-04-16T22:44:21.442Z,101118.69
2023-04-16T22:46:47.821Z,101119.44
2023-04-16T22:49:14.316Z,101123.06
2023-04-16T22:51:40.853Z,101121.63
2023-04-16T22:54:13.682Z,101119.59
2023-04-16T22:56:40.759Z,101121.94
2023-04-16T22:59:07.768Z,101114.34
2023-04-16T23:01:35.305Z,101120.75
2023-04-16T23:04:01.847Z,101116.66
2023-04-16T23:06:28.256Z,101112.50
2023-04-16T23:08:54.696Z,101122.81
2023-04-16T23:11:21.156Z,101114.25
2023-04-16T23:13:47.555Z,101118.81
2023-04-16T23:16:14.051Z,101113.94
2023-04-16T23:18:40.522Z,101109.75
2023-04-16T23:21:06.904Z,101108.81
2023-04-16T23:23:33.372Z,101103.03
2023-04-16T23:26:01.006Z,101105.66
2023-04-16T23:28:27.524Z,101103.41
2023-04-16T23:30:59.220Z,101101.41
2023-04-16T23:33:25.714Z,101112.34
2023-04-16T23:35:52.191Z,101097.97
2023-04-16T23:38:18.707Z,101107.38
2023-04-16T23:40:45.299Z,101101.03
2023-04-16T23:43:11.765Z,101102.41
2023-04-16T23:45:43.061Z,101101.97
2023-04-16T23:48:12.098Z,101106.06
2023-04-16T23:50:38.608Z,101104.22
2023-04-16T23:53:04.991Z,101103.09
2023-04-16T23:55:31.513Z,101101.09
2023-04-16T23:57:58.165Z,101102.91
